sensor_id;sensor_type;location;lat;lon;timestamp;pressure;altitude;pressure_sealevel;temperature;humidity
71889;BME280;59762;49.998;14.858;2022-10-29T00:01:48;98159.25;;;11.59;100.00
71889;BME280;59762;49.998;14.858;2022-10-29T00:04:13;98154.56;;;11.61;100.00
71889;BME280;59762;49.998;14.858;2022-10-29T00:06:39;98152.91;;;11.60;100.00
71889;BME280;59762;49.998;14.858;2022-10-29T00:09:05;98149.00;;;11.63;100.00
71889;BME280;59762;49.998;14.858;2022-10-29T00:11:31;98138.75;;;11.60;100.00
71889;BME280;59762;49.998;14.858;2022-10-29T00:13:58;98143.66;;;11.63;100.00
71889;BME280;59762;49.998;14.858;2022-10-29T00:16:26;98134.84;;;11.62;100.00
71889;BME280;59762;49.998;14.858;2022-10-29T00:18:53;98132.59;;;11.66;100.00
71889;BME280;59762;49.998;14.858;2022-10-29T00:21:20;98130.38;;;11.83;100.00
71889;BME280;59762;49.998;14.858;2022-10-29T00:23:47;98125.03;;;11.83;100.00
71889;BME280;59762;49.998;14.858;2022-10-29T00:26:14;98114.97;;;11.92;100.00
71889;BME280;59762;49.998;14.858;2022-10-29T00:28:40;98103.47;;;11.91;100.00
71889;BME280;59762;49.998;14.858;2022-10-29T00:31:11;98115.78;;;11.92;100.00
71889;BME280;59762;49.998;14.858;2022-10-29T00:33:37;98123.81;;;11.92;100.00
71889;BME280;59762;49.998;14.858;2022-10-29T00:36:04;98132.41;;;11.94;100.00
71889;BME280;59762;49.998;14.858;2022-10-29T00:38:31;98129.13;;;11.99;100.00
71889;BME280;59762;49.998;14.858;2022-10-29T00:40:57;98124.84;;;11.91;100.00
71889;BME280;59762;49.998;14.858;2022-10-29T00:43:24;98132.22;;;11.89;100.00
71889;BME280;59762;49.998;14.858;2022-10-29T00:45:54;98140.63;;;11.86;100.00
71889;BME280;59762;49.998;14.858;2022-10-29T00:48:21;98130.38;;;11.83;100.00
71889;BME280;59762;49.998;14.858;2022-10-29T00:50:47;98137.53;;;11.76;100.00
71889;BME280;59762;49.998;14.858;2022-10-29T00:53:15;98142.25;;;11.67;100.00
71889;BME280;59762;49.998;14.858;2022-10-29T00:55:44;98141.63;;;11.52;100.00
71889;BME280;59762;49.998;14.858;2022-10-29T00:58:10;98137.06;;;11.32;100.00
71889;BME280;59762;49.998;14.858;2022-10-29T01:00:36;98145.06;;;11.26;100.00
71889;BME280;59762;49.998;14.858;2022-10-29T01:03:04;98147.91;;;11.18;100.00
71889;BME280;59762;49.998;14.858;2022-10-29T01:05:30;98155.69;;;11.19;100.00
71889;BME280;59762;49.998;14.858;2022-10-29T01:07:58;98163.47;;;11.14;100.00
71889;BME280;59762;49.998;14.858;2022-10-29T01:10:33;98165.94;;;11.09;100.00
71889;BME280;59762;49.998;14.858;2022-10-29T01:21:42;98154.94;;;10.77;100.00
71889;BME280;59762;49.998;14.858;2022-10-29T01:30:06;98147.50;;;10.66;100.00
71889;BME280;59762;49.998;14.858;2022-10-29T01:40:27;98127.81;;;10.60;100.00
71889;BME280;59762;49.998;14.858;2022-10-29T01:43:11;98127.84;;;10.67;100.00
71889;BME280;59762;49.998;14.858;2022-10-29T01:45:42;98124.75;;;10.70;100.00
71889;BME280;59762;49.998;14.858;2022-10-29T01:48:13;98121.13;;;10.78;100.00
71889;BME280;59762;49.998;14.858;2022-10-29T01:50:44;98121.34;;;10.83;100.00
71889;BME280;59762;49.998;14.858;2022-10-29T01:53:12;98121.97;;;10.92;100.00
71889;BME280;59762;49.998;14.858;2022-10-29T01:55:37;98122.03;;;10.98;100.00
71889;BME280;59762;49.998;14.858;2022-10-29T01:58:04;98113.59;;;11.01;100.00
71889;BME280;59762;49.998;14.858;2022-10-29T02:00:37;98119.78;;;11.08;100.00
71889;BME280;59762;49.998;14.858;2022-10-29T02:04:00;98110.16;;;11.07;100.00
71889;BME280;59762;49.998;14.858;2022-10-29T02:06:20;98103.78;;;11.08;100.00
71889;BME280;59762;49.998;14.858;2022-10-29T02:11:53;98108.69;;;11.05;100.00
71889;BME280;59762;49.998;14.858;2022-10-29T02:15:10;98108.09;;;11.09;100.00
71889;BME280;59762;49.998;14.858;2022-10-29T02:17:16;98103.56;;;11.10;100.00
71889;BME280;59762;49.998;14.858;2022-10-29T02:19:42;98100.94;;;11.17;100.00
71889;BME280;59762;49.998;14.858;2022-10-29T02:22:07;98099.50;;;11.21;100.00
71889;BME280;59762;49.998;14.858;2022-10-29T02:24:33;98096.84;;;11.21;100.00
71889;BME280;59762;49.998;14.858;2022-10-29T02:26:59;98097.03;;;11.19;100.00
71889;BME280;59762;49.998;14.858;2022-10-29T02:29:24;98096.63;;;11.16;100.00
71889;BME280;59762;49.998;14.858;2022-10-29T02:31:50;98092.09;;;11.09;100.00
71889;BME280;59762;49.998;14.858;2022-10-29T02:34:15;98095.56;;;11.10;100.00
71889;BME280;59762;49.998;14.858;2022-10-29T02:36:41;98086.34;;;11.06;100.00
71889;BME280;59762;49.998;14.858;2022-10-29T02:39:07;98086.13;;;11.01;100.00
71889;BME280;59762;49.998;14.858;2022-10-29T02:41:32;98093.72;;;11.04;100.00
71889;BME280;59762;49.998;14.858;2022-10-29T02:43:57;98083.88;;;11.04;100.00
71889;BME280;59762;49.998;14.858;2022-10-29T02:46:23;98075.25;;;10.96;100.00
71889;BME280;59762;49.998;14.858;2022-10-29T02:48:49;98079.34;;;10.92;100.00
71889;BME280;59762;49.998;14.858;2022-10-29T02:51:16;98088.75;;;10.88;100.00
71889;BME280;59762;49.998;14.858;2022-10-29T02:53:42;98093.88;;;10.82;100.00
71889;BME280;59762;49.998;14.858;2022-10-29T02:56:08;98084.84;;;10.83;100.00
71889;BME280;59762;49.998;14.858;2022-10-29T02:58:34;98077.28;;;10.87;100.00
71889;BME280;59762;49.998;14.858;2022-10-29T03:01:00;98074.41;;;10.89;100.00
71889;BME280;59762;49.998;14.858;2022-10-29T03:03:25;98074.44;;;10.95;100.00
71889;BME280;59762;49.998;14.858;2022-10-29T03:05:51;98068.06;;;10.96;100.00
71889;BME280;59762;49.998;14.858;2022-10-29T03:08:17;98071.56;;;10.97;100.00
71889;BME280;59762;49.998;14.858;2022-10-29T03:10:43;98075.25;;;10.96;100.00
71889;BME280;59762;49.998;14.858;2022-10-29T03:13:08;98071.38;;;10.98;100.00
71889;BME280;59762;49.998;14.858;2022-10-29T03:15:35;98074.03;;;10.98;100.00
71889;BME280;59762;49.998;14.858;2022-10-29T03:18:01;98070.75;;;10.96;100.00
71889;BME280;59762;49.998;14.858;2022-10-29T03:20:27;98086.22;;;10.59;100.00
71889;BME280;59762;49.998;14.858;2022-10-29T03:22:52;98081.84;;;10.17;100.00
71889;BME280;59762;49.998;14.858;2022-10-29T03:25:18;98088.78;;;10.11;100.00
71889;BME280;59762;49.998;14.858;2022-10-29T03:27:44;98089.03;;;10.17;100.00
71889;BME280;59762;49.998;14.858;2022-10-29T03:30:12;98069.56;;;10.09;100.00
71889;BME280;59762;49.998;14.858;2022-10-29T03:32:42;98086.34;;;10.10;100.00
71889;BME280;59762;49.998;14.858;2022-10-29T03:35:09;98083.00;;;10.01;100.00
71889;BME280;59762;49.998;14.858;2022-10-29T03:37:35;98085.38;;;9.90;100.00
71889;BME280;59762;49.998;14.858;2022-10-29T03:40:01;98090.22;;;9.79;100.00
71889;BME280;59762;49.998;14.858;2022-10-29T03:42:27;98092.81;;;9.73;100.00
71889;BME280;59762;49.998;14.858;2022-10-29T03:44:59;98095.47;;;9.73;100.00
71889;BME280;59762;49.998;14.858;2022-10-29T03:47:25;98100.25;;;9.56;100.00
71889;BME280;59762;49.998;14.858;2022-10-29T03:49:51;98110.59;;;9.23;100.00
71889;BME280;59762;49.998;14.858;2022-10-29T03:52:16;98117.94;;;9.21;100.00
71889;BME280;59762;49.998;14.858;2022-10-29T03:54:42;98130.81;;;9.02;100.00
71889;BME280;59762;49.998;14.858;2022-10-29T03:57:08;98131.94;;;8.93;100.00
71889;BME280;59762;49.998;14.858;2022-10-29T03:59:33;98139.66;;;8.88;100.00
71889;BME280;59762;49.998;14.858;2022-10-29T04:01:59;98137.81;;;8.89;100.00
71889;BME280;59762;49.998;14.858;2022-10-29T04:04:24;98126.94;;;8.83;100.00
71889;BME280;59762;49.998;14.858;2022-10-29T04:06:50;98125.22;;;8.76;100.00
71889;BME280;59762;49.998;14.858;2022-10-29T04:09:16;98122.28;;;8.71;100.00
71889;BME280;59762;49.998;14.858;2022-10-29T04:11:41;98118.44;;;8.73;100.00
71889;BME280;59762;49.998;14.858;2022-10-29T04:14:07;98113.31;;;8.72;100.00
71889;BME280;59762;49.998;14.858;2022-10-29T04:16:32;98111.66;;;8.71;100.00
71889;BME280;59762;49.998;14.858;2022-10-29T04:18:58;98114.53;;;8.69;100.00
71889;BME280;59762;49.998;14.858;2022-10-29T04:21:24;98108.66;;;8.74;100.00
71889;BME280;59762;49.998;14.858;2022-10-29T04:23:49;98120.53;;;8.78;100.00
71889;BME280;59762;49.998;14.858;2022-10-29T04:26:16;98117.88;;;8.78;100.00
71889;BME280;59762;49.998;14.858;2022-10-29T04:28:42;98110.94;;;8.77;100.00
71889;BME280;59762;49.998;14.858;2022-10-29T04:31:11;98119.91;;;8.76;100.00
71889;BME280;59762;49.998;14.858;2022-10-29T04:33:37;98123.81;;;8.80;100.00
71889;BME280;59762;49.998;14.858;2022-10-29T04:36:03;98126.75;;;8.85;100.00
71889;BME280;59762;49.998;14.858;2022-10-29T04:38:28;98115.38;;;8.91;100.00
71889;BME280;59762;49.998;14.858;2022-10-29T04:40:58;98127.03;;;8.90;100.00
71889;BME280;59762;49.998;14.858;2022-10-29T04:43:24;98122.28;;;8.86;100.00
71889;BME280;59762;49.998;14.858;2022-10-29T04:45:55;98113.34;;;8.93;100.00
71889;BME280;59762;49.998;14.858;2022-10-29T04:48:21;98111.50;;;9.08;100.00
71889;BME280;59762;49.998;14.858;2022-10-29T04:50:47;98110.22;;;9.26;100.00
71889;BME280;59762;49.998;14.858;2022-10-29T04:53:13;98109.53;;;9.39;100.00
71889;BME280;59762;49.998;14.858;2022-10-29T04:55:40;98111.88;;;9.48;100.00
71889;BME280;59762;49.998;14.858;2022-10-29T04:58:06;98110.47;;;9.52;100.00
71889;BME280;59762;49.998;14.858;2022-10-29T05:00:35;98106.72;;;9.47;100.00
71889;BME280;59762;49.998;14.858;2022-10-29T05:03:00;98106.94;;;9.24;100.00
71889;BME280;59762;49.998;14.858;2022-10-29T05:05:26;98104.72;;;9.27;100.00
71889;BME280;59762;49.998;14.858;2022-10-29T05:07:59;98116.41;;;9.33;100.00
71889;BME280;59762;49.998;14.858;2022-10-29T05:10:27;98116.88;;;9.37;100.00
71889;BME280;59762;49.998;14.858;2022-10-29T05:13:00;98118.75;;;9.43;100.00
71889;BME280;59762;49.998;14.858;2022-10-29T05:15:27;98112.25;;;9.45;100.00
71889;BME280;59762;49.998;14.858;2022-10-29T05:17:53;98111.09;;;9.33;100.00
71889;BME280;59762;49.998;14.858;2022-10-29T05:20:19;98105.66;;;9.20;100.00
71889;BME280;59762;49.998;14.858;2022-10-29T05:22:45;98110.34;;;9.18;100.00
71889;BME280;59762;49.998;14.858;2022-10-29T05:25:10;98112.63;;;9.21;100.00
71889;BME280;59762;49.998;14.858;2022-10-29T05:27:36;98136.41;;;9.29;100.00
71889;BME280;59762;49.998;14.858;2022-10-29T05:30:02;98139.59;;;9.18;100.00
71889;BME280;59762;49.998;14.858;2022-10-29T05:32:28;98139.00;;;9.01;100.00
71889;BME280;59762;49.998;14.858;2022-10-29T05:34:54;98138.22;;;9.07;100.00
71889;BME280;59762;49.998;14.858;2022-10-29T05:37:19;98141.78;;;9.14;100.00
71889;BME280;59762;49.998;14.858;2022-10-29T05:39:45;98141.53;;;9.09;100.00
71889;BME280;59762;49.998;14.858;2022-10-29T05:42:10;98141.44;;;9.17;100.00
71889;BME280;59762;49.998;14.858;2022-10-29T05:44:36;98154.41;;;9.27;100.00
71889;BME280;59762;49.998;14.858;2022-10-29T05:47:02;98155.56;;;9.39;100.00
71889;BME280;59762;49.998;14.858;2022-10-29T05:49:30;98142.50;;;9.23;100.00
71889;BME280;59762;49.998;14.858;2022-10-29T05:51:55;98149.16;;;9.12;100.00
71889;BME280;59762;49.998;14.858;2022-10-29T05:54:21;98150.69;;;9.21;100.00
71889;BME280;59762;49.998;14.858;2022-10-29T05:56:47;98155.16;;;9.21;100.00
71889;BME280;59762;49.998;14.858;2022-10-29T05:59:12;98156.56;;;9.38;100.00
71889;BME280;59762;49.998;14.858;2022-10-29T06:01:38;98156.25;;;9.48;100.00
71889;BME280;59762;49.998;14.858;2022-10-29T06:04:04;98154.66;;;9.53;100.00
71889;BME280;59762;49.998;14.858;2022-10-29T06:06:29;98161.63;;;9.54;100.00
71889;BME280;59762;49.998;14.858;2022-10-29T06:08:55;98170.63;;;9.53;100.00
71889;BME280;59762;49.998;14.858;2022-10-29T06:11:21;98171.66;;;9.52;100.00
71889;BME280;59762;49.998;14.858;2022-10-29T06:13:46;98170.19;;;9.50;100.00
71889;BME280;59762;49.998;14.858;2022-10-29T06:16:12;98165.22;;;9.47;100.00
71889;BME280;59762;49.998;14.858;2022-10-29T06:18:37;98171.00;;;9.50;100.00
71889;BME280;59762;49.998;14.858;2022-10-29T06:21:03;98181.25;;;9.53;100.00
71889;BME280;59762;49.998;14.858;2022-10-29T06:23:29;98184.19;;;9.58;100.00
71889;BME280;59762;49.998;14.858;2022-10-29T06:25:57;98188.56;;;9.66;100.00
71889;BME280;59762;49.998;14.858;2022-10-29T06:28:23;98187.41;;;9.75;100.00
71889;BME280;59762;49.998;14.858;2022-10-29T06:30:49;98202.16;;;9.78;100.00
71889;BME280;59762;49.998;14.858;2022-10-29T06:33:17;98200.94;;;9.80;100.00
71889;BME280;59762;49.998;14.858;2022-10-29T06:35:42;98192.63;;;9.90;100.00
71889;BME280;59762;49.998;14.858;2022-10-29T06:38:08;98198.06;;;10.03;100.00
71889;BME280;59762;49.998;14.858;2022-10-29T06:40:33;98194.94;;;10.21;100.00
71889;BME280;59762;49.998;14.858;2022-10-29T06:43:01;98196.28;;;10.32;100.00
71889;BME280;59762;49.998;14.858;2022-10-29T06:45:28;98186.31;;;10.41;100.00
71889;BME280;59762;49.998;14.858;2022-10-29T06:47:54;98188.78;;;10.49;100.00
71889;BME280;59762;49.998;14.858;2022-10-29T06:50:19;98188.19;;;10.53;100.00
71889;BME280;59762;49.998;14.858;2022-10-29T06:55:19;98179.94;;;10.76;100.00
71889;BME280;59762;49.998;14.858;2022-10-29T06:57:45;98185.13;;;10.91;100.00
71889;BME280;59762;49.998;14.858;2022-10-29T07:00:11;98180.88;;;11.03;100.00
71889;BME280;59762;49.998;14.858;2022-10-29T07:02:36;98176.00;;;11.14;100.00
71889;BME280;59762;49.998;14.858;2022-10-29T07:05:02;98179.34;;;11.29;100.00
71889;BME280;59762;49.998;14.858;2022-10-29T07:07:28;98165.19;;;11.35;100.00
71889;BME280;59762;49.998;14.858;2022-10-29T07:09:53;98163.16;;;11.50;100.00
71889;BME280;59762;49.998;14.858;2022-10-29T07:12:19;98160.09;;;11.60;100.00
71889;BME280;59762;49.998;14.858;2022-10-29T07:14:44;98162.16;;;11.71;100.00
71889;BME280;59762;49.998;14.858;2022-10-29T07:17:10;98162.84;;;11.86;100.00
71889;BME280;59762;49.998;14.858;2022-10-29T07:19:36;98157.06;;;11.96;100.00
71889;BME280;59762;49.998;14.858;2022-10-29T07:22:01;98157.47;;;12.13;100.00
71889;BME280;59762;49.998;14.858;2022-10-29T07:24:27;98144.13;;;12.13;100.00
71889;BME280;59762;49.998;14.858;2022-10-29T07:26:52;98141.44;;;12.26;100.00
71889;BME280;59762;49.998;14.858;2022-10-29T07:29:18;98144.09;;;12.40;100.00
71889;BME280;59762;49.998;14.858;2022-10-29T07:31:44;98141.00;;;12.36;100.00
71889;BME280;59762;49.998;14.858;2022-10-29T07:34:09;98143.66;;;12.29;100.00
71889;BME280;59762;49.998;14.858;2022-10-29T07:36:35;98143.06;;;12.27;100.00
71889;BME280;59762;49.998;14.858;2022-10-29T07:39:01;98148.84;;;12.18;100.00
71889;BME280;59762;49.998;14.858;2022-10-29T07:41:28;98157.06;;;12.09;100.00
71889;BME280;59762;49.998;14.858;2022-10-29T07:43:53;98155.81;;;12.25;100.00
71889;BME280;59762;49.998;14.858;2022-10-29T07:46:19;98158.47;;;12.32;100.00
71889;BME280;59762;49.998;14.858;2022-10-29T07:48:44;98158.66;;;12.30;100.00
71889;BME280;59762;49.998;14.858;2022-10-29T07:51:11;98158.25;;;12.40;100.00
71889;BME280;59762;49.998;14.858;2022-10-29T07:53:36;98160.69;;;12.48;100.00
71889;BME280;59762;49.998;14.858;2022-10-29T07:56:02;98159.69;;;12.49;100.00
71889;BME280;59762;49.998;14.858;2022-10-29T07:58:28;98163.13;;;12.56;100.00
71889;BME280;59762;49.998;14.858;2022-10-29T08:00:53;98159.84;;;12.61;100.00
71889;BME280;59762;49.998;14.858;2022-10-29T08:03:19;98152.59;;;12.75;100.00
71889;BME280;59762;49.998;14.858;2022-10-29T08:05:45;98157.75;;;12.70;100.00
71889;BME280;59762;49.998;14.858;2022-10-29T08:08:14;98173.38;;;12.79;100.00
71889;BME280;59762;49.998;14.858;2022-10-29T08:10:42;98171.25;;;12.88;100.00
71889;BME280;59762;49.998;14.858;2022-10-29T08:13:08;98170.22;;;12.96;100.00
71889;BME280;59762;49.998;14.858;2022-10-29T08:15:34;98171.84;;;12.97;100.00
71889;BME280;59762;49.998;14.858;2022-10-29T08:18:00;98174.69;;;13.08;100.00
71889;BME280;59762;49.998;14.858;2022-10-29T08:20:27;98169.97;;;13.10;100.00
71889;BME280;59762;49.998;14.858;2022-10-29T08:22:53;98170.38;;;13.07;100.00
71889;BME280;59762;49.998;14.858;2022-10-29T08:25:19;98183.88;;;13.19;100.00
71889;BME280;59762;49.998;14.858;2022-10-29T08:27:45;98175.44;;;13.29;100.00
71889;BME280;59762;49.998;14.858;2022-10-29T08:30:12;98175.63;;;13.34;100.00
71889;BME280;59762;49.998;14.858;2022-10-29T08:32:45;98177.03;;;13.36;100.00
71889;BME280;59762;49.998;14.858;2022-10-29T08:35:11;98177.66;;;13.38;100.00
71889;BME280;59762;49.998;14.858;2022-10-29T08:37:41;98173.28;;;13.51;100.00
71889;BME280;59762;49.998;14.858;2022-10-29T08:40:12;98170.53;;;13.57;100.00
71889;BME280;59762;49.998;14.858;2022-10-29T08:45:40;98171.72;;;13.68;100.00
71889;BME280;59762;49.998;14.858;2022-10-29T08:48:25;98165.88;;;13.78;100.00
71889;BME280;59762;49.998;14.858;2022-10-29T08:51:13;98172.00;;;13.85;100.00
71889;BME280;59762;49.998;14.858;2022-10-29T08:53:43;98160.44;;;13.91;100.00
71889;BME280;59762;49.998;14.858;2022-10-29T08:56:15;98167.72;;;14.02;100.00
71889;BME280;59762;49.998;14.858;2022-10-29T09:01:31;98164.56;;;14.12;100.00
71889;BME280;59762;49.998;14.858;2022-10-29T09:03:57;98156.91;;;14.16;100.00
71889;BME280;59762;49.998;14.858;2022-10-29T09:06:47;98151.38;;;14.35;100.00
71889;BME280;59762;49.998;14.858;2022-10-29T09:09:38;98149.41;;;14.49;100.00
71889;BME280;59762;49.998;14.858;2022-10-29T09:17:53;98157.25;;;14.44;100.00
71889;BME280;59762;49.998;14.858;2022-10-29T09:20:35;98165.19;;;14.57;100.00
71889;BME280;59762;49.998;14.858;2022-10-29T09:23:18;98168.19;;;14.68;100.00
71889;BME280;59762;49.998;14.858;2022-10-29T09:26:02;98169.94;;;14.55;100.00
71889;BME280;59762;49.998;14.858;2022-10-29T09:28:39;98172.78;;;14.60;100.00
71889;BME280;59762;49.998;14.858;2022-10-29T09:33:51;98172.72;;;14.67;100.00
71889;BME280;59762;49.998;14.858;2022-10-29T09:36:20;98156.03;;;14.83;100.00
71889;BME280;59762;49.998;14.858;2022-10-29T09:38:53;98164.44;;;14.69;100.00
71889;BME280;59762;49.998;14.858;2022-10-29T09:41:25;98166.53;;;14.67;100.00
71889;BME280;59762;49.998;14.858;2022-10-29T09:44:10;98155.94;;;14.90;100.00
71889;BME280;59762;49.998;14.858;2022-10-29T09:47:10;98153.66;;;14.94;100.00
71889;BME280;59762;49.998;14.858;2022-10-29T09:52:22;98140.19;;;15.12;100.00
71889;BME280;59762;49.998;14.858;2022-10-29T09:54:50;98142.34;;;15.22;100.00
71889;BME280;59762;49.998;14.858;2022-10-29T09:57:19;98143.38;;;15.21;100.00
71889;BME280;59762;49.998;14.858;2022-10-29T10:00:15;98135.41;;;15.44;100.00
71889;BME280;59762;49.998;14.858;2022-10-29T10:02:42;98129.22;;;15.74;100.00
71889;BME280;59762;49.998;14.858;2022-10-29T10:05:13;98123.16;;;15.78;100.00
71889;BME280;59762;49.998;14.858;2022-10-29T10:07:40;98113.94;;;15.74;100.00
71889;BME280;59762;49.998;14.858;2022-10-29T10:10:19;98112.63;;;15.65;100.00
71889;BME280;59762;49.998;14.858;2022-10-29T10:12:47;98111.84;;;15.88;100.00
71889;BME280;59762;49.998;14.858;2022-10-29T10:15:21;98108.34;;;15.99;100.00
71889;BME280;59762;49.998;14.858;2022-10-29T10:17:58;98110.22;;;16.10;100.00
71889;BME280;59762;49.998;14.858;2022-10-29T10:20:38;98090.13;;;16.25;100.00
71889;BME280;59762;49.998;14.858;2022-10-29T10:23:38;98085.78;;;16.35;100.00
71889;BME280;59762;49.998;14.858;2022-10-29T10:26:10;98082.13;;;16.53;100.00
71889;BME280;59762;49.998;14.858;2022-10-29T10:29:10;98085.13;;;16.69;100.00
71889;BME280;59762;49.998;14.858;2022-10-29T10:31:37;98091.81;;;16.78;100.00
71889;BME280;59762;49.998;14.858;2022-10-29T10:34:18;98079.66;;;16.75;100.00
71889;BME280;59762;49.998;14.858;2022-10-29T10:36:54;98075.09;;;16.76;100.00
71889;BME280;59762;49.998;14.858;2022-10-29T10:39:22;98075.44;;;16.79;100.00
71889;BME280;59762;49.998;14.858;2022-10-29T10:41:49;98073.56;;;16.80;100.00
71889;BME280;59762;49.998;14.858;2022-10-29T10:44:17;98073.84;;;16.95;100.00
71889;BME280;59762;49.998;14.858;2022-10-29T10:46:44;98077.13;;;16.97;100.00
71889;BME280;59762;49.998;14.858;2022-10-29T10:51:37;98088.19;;;16.72;100.00
71889;BME280;59762;49.998;14.858;2022-10-29T10:54:26;98091.75;;;16.89;100.00
71889;BME280;59762;49.998;14.858;2022-10-29T10:57:00;98105.91;;;16.97;100.00
71889;BME280;59762;49.998;14.858;2022-10-29T10:59:40;98101.72;;;16.89;100.00
71889;BME280;59762;49.998;14.858;2022-10-29T11:02:28;98092.97;;;16.70;100.00
71889;BME280;59762;49.998;14.858;2022-10-29T11:05:01;98083.25;;;16.81;100.00
71889;BME280;59762;49.998;14.858;2022-10-29T11:07:33;98085.72;;;16.82;100.00
71889;BME280;59762;49.998;14.858;2022-10-29T11:10:04;98089.00;;;16.73;100.00
71889;BME280;59762;49.998;14.858;2022-10-29T11:12:48;98086.28;;;16.84;100.00
71889;BME280;59762;49.998;14.858;2022-10-29T11:15:22;98086.25;;;16.96;100.00
71889;BME280;59762;49.998;14.858;2022-10-29T11:17:55;98082.59;;;17.02;100.00
71889;BME280;59762;49.998;14.858;2022-10-29T11:20:36;98086.91;;;17.03;100.00
71889;BME280;59762;49.998;14.858;2022-10-29T11:23:32;98082.84;;;17.01;100.00
71889;BME280;59762;49.998;14.858;2022-10-29T11:26:19;98072.25;;;16.71;100.00
71889;BME280;59762;49.998;14.858;2022-10-29T11:31:51;98072.16;;;16.77;100.00
71889;BME280;59762;49.998;14.858;2022-10-29T11:34:41;98076.25;;;16.80;100.00
71889;BME280;59762;49.998;14.858;2022-10-29T11:37:30;98071.44;;;16.70;100.00
71889;BME280;59762;49.998;14.858;2022-10-29T11:40:12;98070.97;;;16.85;100.00
71889;BME280;59762;49.998;14.858;2022-10-29T11:42:40;98060.88;;;16.92;100.00
71889;BME280;59762;49.998;14.858;2022-10-29T11:45:10;98062.69;;;16.75;100.00
71889;BME280;59762;49.998;14.858;2022-10-29T11:47:54;98063.84;;;16.79;100.00
71889;BME280;59762;49.998;14.858;2022-10-29T11:50:46;98063.34;;;16.82;100.00
71889;BME280;59762;49.998;14.858;2022-10-29T11:53:43;98056.13;;;16.82;100.00
71889;BME280;59762;49.998;14.858;2022-10-29T11:56:24;98055.53;;;16.80;100.00
71889;BME280;59762;49.998;14.858;2022-10-29T11:59:09;98046.41;;;16.81;100.00
71889;BME280;59762;49.998;14.858;2022-10-29T12:04:26;98038.66;;;16.85;100.00
71889;BME280;59762;49.998;14.858;2022-10-29T12:09:59;98029.78;;;16.84;100.00
71889;BME280;59762;49.998;14.858;2022-10-29T12:15:22;98031.47;;;17.02;100.00
71889;BME280;59762;49.998;14.858;2022-10-29T12:18:02;98019.63;;;17.03;100.00
71889;BME280;59762;49.998;14.858;2022-10-29T12:21:08;98020.72;;;17.19;100.00
71889;BME280;59762;49.998;14.858;2022-10-29T12:29:18;98015.09;;;16.75;100.00
71889;BME280;59762;49.998;14.858;2022-10-29T12:35:09;98011.38;;;16.64;100.00
71889;BME280;59762;49.998;14.858;2022-10-29T12:37:48;98016.91;;;16.46;100.00
71889;BME280;59762;49.998;14.858;2022-10-29T12:40:23;98021.50;;;16.34;100.00
71889;BME280;59762;49.998;14.858;2022-10-29T12:42:51;98014.53;;;16.21;100.00
71889;BME280;59762;49.998;14.858;2022-10-29T12:53:28;98003.78;;;15.98;100.00
71889;BME280;59762;49.998;14.858;2022-10-29T12:55:56;97997.59;;;16.21;100.00
71889;BME280;59762;49.998;14.858;2022-10-29T13:09:26;97991.59;;;16.30;100.00
71889;BME280;59762;49.998;14.858;2022-10-29T13:12:12;97998.13;;;16.34;100.00
71889;BME280;59762;49.998;14.858;2022-10-29T13:19:58;97992.13;;;16.44;100.00
71889;BME280;59762;49.998;14.858;2022-10-29T13:30:44;97992.88;;;16.28;100.00
71889;BME280;59762;49.998;14.858;2022-10-29T13:41:15;97984.25;;;16.26;100.00
71889;BME280;59762;49.998;14.858;2022-10-29T13:43:51;97989.03;;;16.24;100.00
71889;BME280;59762;49.998;14.858;2022-10-29T13:49:03;97980.97;;;16.24;100.00
71889;BME280;59762;49.998;14.858;2022-10-29T13:51:41;97977.00;;;16.14;100.00
71889;BME280;59762;49.998;14.858;2022-10-29T13:54:15;97974.66;;;16.18;100.00
71889;BME280;59762;49.998;14.858;2022-10-29T13:56:48;97972.94;;;16.12;100.00
71889;BME280;59762;49.998;14.858;2022-10-29T13:59:40;97976.09;;;16.09;100.00
71889;BME280;59762;49.998;14.858;2022-10-29T14:02:24;97967.22;;;16.08;100.00
71889;BME280;59762;49.998;14.858;2022-10-29T14:04:55;97971.44;;;16.04;100.00
71889;BME280;59762;49.998;14.858;2022-10-29T14:10:49;97967.03;;;15.86;100.00
71889;BME280;59762;49.998;14.858;2022-10-29T14:18:44;97967.03;;;15.75;100.00
71889;BME280;59762;49.998;14.858;2022-10-29T14:21:17;97968.22;;;15.67;100.00
71889;BME280;59762;49.998;14.858;2022-10-29T14:24:00;97970.50;;;15.63;100.00
71889;BME280;59762;49.998;14.858;2022-10-29T14:26:32;97972.94;;;15.53;100.00
71889;BME280;59762;49.998;14.858;2022-10-29T14:29:19;97968.88;;;15.51;100.00
71889;BME280;59762;49.998;14.858;2022-10-29T14:31:45;97976.00;;;15.45;100.00
71889;BME280;59762;49.998;14.858;2022-10-29T14:34:27;97974.69;;;15.36;100.00
71889;BME280;59762;49.998;14.858;2022-10-29T14:37:39;97976.31;;;15.25;100.00
71889;BME280;59762;49.998;14.858;2022-10-29T14:39:44;97979.34;;;15.17;100.00
71889;BME280;59762;49.998;14.858;2022-10-29T14:42:20;97973.47;;;15.08;100.00
71889;BME280;59762;49.998;14.858;2022-10-29T14:44:51;97973.69;;;14.95;100.00
71889;BME280;59762;49.998;14.858;2022-10-29T14:47:22;97975.44;;;14.89;100.00
71889;BME280;59762;49.998;14.858;2022-10-29T14:49:49;97980.44;;;14.86;100.00
71889;BME280;59762;49.998;14.858;2022-10-29T14:52:26;97975.63;;;14.76;100.00
71889;BME280;59762;49.998;14.858;2022-10-29T14:54:53;97976.63;;;14.63;100.00
71889;BME280;59762;49.998;14.858;2022-10-29T14:57:23;97975.88;;;14.56;100.00
71889;BME280;59762;49.998;14.858;2022-10-29T14:59:53;97979.25;;;14.52;100.00